Time;durP1;ratioP1;P1;durP2;ratioP2;P2;SDS_P1;SDS_P2;PMS_P1;PMS_P2;Temp;Humidity;BMP_temperature;BMP_pressure;BME280_temperature;BME280_humidity;BME280_pressure;Samples;Min_cycle;Max_cycle;Signal;HPM_P1;HPM_P2
2022/06/08 00:00:10;;;;;;;2.63;1.60;;;;;;;17.21;86.54;100564.78;5033983;28;20447;-66
2022/06/08 00:02:38;;;;;;;3.57;1.63;;;;;;;17.20;85.97;100558.50;5033521;28;20455;-66
2022/06/08 00:05:06;;;;;;;1.90;1.40;;;;;;;17.21;86.51;100559.31;5033946;28;20443;-66
2022/06/08 00:07:32;;;;;;;1.50;1.40;;;;;;;17.21;87.32;100570.25;5033374;28;20487;-67
2022/06/08 00:09:59;;;;;;;2.30;1.60;;;;;;;17.20;87.07;100564.00;5034032;28;20435;-66
2022/06/08 00:12:26;;;;;;;1.77;1.47;;;;;;;17.26;86.65;100556.31;5033862;28;20514;-67
2022/06/08 00:14:55;;;;;;;2.20;1.73;;;;;;;17.29;86.65;100561.91;5033832;28;20447;-66
2022/06/08 00:17:22;;;;;;;2.40;1.87;;;;;;;17.30;86.79;100551.75;5033755;28;20467;-66
2022/06/08 00:19:49;;;;;;;2.07;1.67;;;;;;;17.30;86.78;100558.03;5033320;28;20963;-67
2022/06/08 00:22:17;;;;;;;1.90;1.40;;;;;;;17.30;86.61;100558.03;5033277;28;20439;-67
2022/06/08 00:24:44;;;;;;;2.83;1.67;;;;;;;17.26;86.60;100561.81;5033417;28;20530;-66
2022/06/08 00:27:12;;;;;;;2.10;1.70;;;;;;;17.20;86.42;100561.25;5033317;28;20490;-67
2022/06/08 00:29:39;;;;;;;1.93;1.30;;;;;;;17.13;86.95;100569.25;5033369;28;20929;-67
2022/06/08 00:32:08;;;;;;;3.33;2.03;;;;;;;17.07;86.67;100565.16;5033191;28;20436;-67
2022/06/08 00:34:35;;;;;;;3.03;1.70;;;;;;;17.03;86.49;100565.03;5033601;28;20829;-67
2022/06/08 00:37:01;;;;;;;3.40;1.77;;;;;;;17.01;87.12;100563.81;5033345;28;20513;-68
2022/06/08 00:39:28;;;;;;;1.87;1.27;;;;;;;16.99;87.35;100568.81;5033236;28;20439;-67
2022/06/08 00:42:00;;;;;;;1.67;1.27;;;;;;;16.94;87.60;100558.13;5033145;28;20446;-68
2022/06/08 00:44:31;;;;;;;2.57;1.47;;;;;;;16.93;88.11;100562.78;5033120;28;20775;-67
2022/06/08 00:46:59;;;;;;;2.67;1.97;;;;;;;16.94;88.09;100566.31;5033170;28;20486;-65
2022/06/08 00:49:32;;;;;;;2.47;1.77;;;;;;;16.86;88.38;100568.84;5033376;28;20820;-65
2022/06/08 00:52:02;;;;;;;1.70;1.40;;;;;;;16.91;87.36;100554.16;5033310;28;20421;-67
2022/06/08 00:54:31;;;;;;;1.97;1.30;;;;;;;16.87;86.35;100555.97;5033016;28;20475;-67
2022/06/08 00:57:01;;;;;;;2.17;1.40;;;;;;;16.80;85.75;100556.53;5032952;28;20578;-67
2022/06/08 00:59:28;;;;;;;2.03;1.50;;;;;;;16.73;85.34;100550.81;5032818;28;20921;-66
2022/06/08 01:01:55;;;;;;;2.50;1.83;;;;;;;16.63;84.58;100554.00;5033301;28;20534;-66
2022/06/08 01:04:23;;;;;;;2.07;1.87;;;;;;;16.58;85.85;100556.97;5032688;28;20963;-67
2022/06/08 01:06:55;;;;;;;2.00;1.57;;;;;;;16.56;87.00;100545.59;5032922;28;20487;-67
2022/06/08 01:09:27;;;;;;;2.67;1.73;;;;;;;16.52;88.52;100550.94;5033123;28;20424;-67
2022/06/08 01:11:58;;;;;;;2.63;1.63;;;;;;;16.51;89.46;100554.81;5032728;28;20424;-67
2022/06/08 01:14:24;;;;;;;3.43;2.23;;;;;;;16.52;89.61;100550.16;5033314;28;20443;-67
2022/06/08 01:16:57;;;;;;;2.97;2.17;;;;;;;16.52;90.09;100544.69;5032708;28;20818;-67
2022/06/08 01:19:24;;;;;;;2.83;1.80;;;;;;;16.50;90.31;100542.28;5032714;28;20976;-67
2022/06/08 01:21:58;;;;;;;3.00;2.17;;;;;;;16.46;90.31;100535.88;5032917;28;20443;-68
2022/06/08 01:24:26;;;;;;;2.07;1.73;;;;;;;16.40;90.09;100538.06;5032778;28;20429;-66
2022/06/08 01:27:25;;;;;;;1.80;1.60;;;;;;;16.34;90.18;100533.97;5032796;28;20493;-66
2022/06/08 01:30:03;;;;;;;1.87;1.40;;;;;;;16.35;90.22;100532.81;5032701;28;20447;-64
2022/06/08 01:32:35;;;;;;;2.63;1.77;;;;;;;16.27;90.03;100520.06;5032556;28;20518;-64
2022/06/08 01:35:24;;;;;;;2.87;2.10;;;;;;;16.15;90.68;100518.09;5033030;28;20847;-67
2022/06/08 01:38:05;;;;;;;2.83;2.03;;;;;;;16.06;91.05;100519.34;5032879;28;20459;-65
2022/06/08 01:40:46;;;;;;;2.87;1.60;;;;;;;15.99;91.54;100524.59;5032888;28;20458;-64
2022/06/08 01:43:27;;;;;;;3.70;2.27;;;;;;;15.97;91.14;100526.84;5032744;28;20432;-65
2022/06/08 01:46:02;;;;;;;2.23;1.60;;;;;;;15.91;91.31;100518.06;5036324;28;20432;-66
2022/06/08 01:48:43;;;;;;;2.50;1.93;;;;;;;15.88;92.11;100521.47;5036230;28;20489;-65
2022/06/08 01:51:20;;;;;;;2.40;1.70;;;;;;;15.88;92.37;100526.94;5036048;28;20427;-64
2022/06/08 01:53:55;;;;;;;4.30;2.00;;;;;;;15.89;92.02;100523.88;5036323;28;20429;-65
2022/06/08 01:56:28;;;;;;;2.83;2.10;;;;;;;15.94;92.57;100519.31;5036105;28;20711;-65
2022/06/08 01:59:07;;;;;;;3.00;1.97;;;;;;;15.91;92.31;100517.28;5069204;22;20508;-78
2022/06/08 02:01:43;;;;;;;4.57;1.97;;;;;;;15.80;92.33;100511.44;5059476;28;20504;-78
2022/06/08 02:04:17;;;;;;;3.10;2.27;;;;;;;15.79;92.96;100507.91;5058593;28;20457;-78
2022/06/08 02:06:52;;;;;;;2.43;2.23;;;;;;;15.69;93.25;100507.56;5059605;28;20565;-78
2022/06/08 02:09:27;;;;;;;3.43;1.37;;;;;;;15.63;93.11;100515.94;5058942;28;20548;-78
2022/06/08 02:12:00;;;;;;;3.20;2.33;;;;;;;15.65;92.96;100507.44;5058997;28;20837;-78
2022/06/08 02:14:34;;;;;;;3.77;2.17;;;;;;;15.63;93.07;100515.13;5060574;28;20489;-79
2022/06/08 02:17:11;;;;;;;2.90;2.17;;;;;;;15.52;93.61;100517.47;5059326;28;20996;-78
2022/06/08 02:19:42;;;;;;;3.17;1.93;;;;;;;15.39;94.48;100516.63;5059562;28;20422;-78
2022/06/08 02:22:15;;;;;;;4.60;2.10;;;;;;;15.42;94.27;100517.09;5057499;28;20518;-78
2022/06/08 02:24:49;;;;;;;2.77;2.23;;;;;;;15.39;94.42;100516.63;5058450;28;20853;-73
2022/06/08 02:27:19;;;;;;;2.30;1.73;;;;;;;15.33;94.58;100517.19;5055648;28;20565;-76
2022/06/08 02:29:52;;;;;;;2.27;2.07;;;;;;;15.36;94.44;100520.03;5055787;28;20529;-75
2022/06/08 02:35:12;;;;;;;6.83;2.43;;;;;;;15.22;94.04;100526.91;5055579;28;20910;-75
2022/06/08 02:37:40;;;;;;;3.20;2.10;;;;;;;15.17;90.12;100525.16;5055613;28;20477;-75
2022/06/08 02:40:12;;;;;;;3.77;1.87;;;;;;;15.04;90.43;100521.56;5055311;28;20875;-75
2022/06/08 02:42:42;;;;;;;3.40;1.90;;;;;;;15.02;89.88;100523.03;5055674;28;20427;-75
2022/06/08 02:45:14;;;;;;;2.27;1.63;;;;;;;14.99;91.47;100523.72;5055310;28;20439;-75
2022/06/08 02:47:43;;;;;;;8.33;2.30;;;;;;;14.95;92.68;100528.22;5055389;28;20486;-75
2022/06/08 02:50:14;;;;;;;3.23;2.30;;;;;;;14.94;93.85;100524.69;5055073;28;20533;-75
2022/06/08 02:52:43;;;;;;;2.17;1.97;;;;;;;14.93;94.55;100530.50;5055333;28;20430;-76
2022/06/08 02:55:20;;;;;;;3.73;2.47;;;;;;;14.93;95.10;100527.78;5054841;28;20438;-75
2022/06/08 02:57:52;;;;;;;4.63;2.50;;;;;;;14.99;95.26;100529.16;5055104;28;20553;-74
2022/06/08 03:00:26;;;;;;;4.00;2.40;;;;;;;15.02;95.30;100526.56;5055339;28;20430;-74
2022/06/08 03:02:58;;;;;;;3.23;2.20;;;;;;;15.08;95.30;100519.78;5055207;28;20430;-74
2022/06/08 03:05:29;;;;;;;2.80;1.90;;;;;;;15.18;95.56;100523.22;5054885;28;20457;-74
2022/06/08 03:08:10;;;;;;;2.70;1.77;;;;;;;15.05;96.22;100520.47;5054607;28;20929;-74
2022/06/08 03:10:42;;;;;;;2.80;2.10;;;;;;;15.10;95.75;100516.72;5055167;28;20534;-75
2022/06/08 03:13:15;;;;;;;2.50;1.73;;;;;;;15.20;95.25;100519.06;5055108;28;20427;-74
2022/06/08 03:15:44;;;;;;;4.17;2.70;;;;;;;15.24;95.72;100514.53;5054719;28;21027;-74
2022/06/08 03:18:10;;;;;;;2.20;1.80;;;;;;;15.31;95.59;100513.97;5054877;28;20549;-74
2022/06/08 03:20:37;;;;;;;3.83;2.40;;;;;;;15.32;94.13;100510.94;5054661;28;20541;-74
2022/06/08 03:23:03;;;;;;;3.53;2.73;;;;;;;15.28;92.18;100514.66;5054760;28;20537;-74
2022/06/08 03:25:30;;;;;;;2.13;1.87;;;;;;;15.31;90.94;100514.75;5054707;28;20452;-74
2022/06/08 03:27:58;;;;;;;2.40;1.97;;;;;;;15.35;90.92;100512.97;5054532;28;20492;-73
2022/06/08 03:30:25;;;;;;;3.20;2.30;;;;;;;15.47;92.09;100514.97;5054613;28;20529;-73
2022/06/08 03:32:51;;;;;;;2.97;2.00;;;;;;;15.60;93.04;100508.41;5054561;28;20849;-73
2022/06/08 03:35:18;;;;;;;2.23;1.70;;;;;;;15.68;93.68;100514.16;5054165;28;20446;-73
2022/06/08 03:37:45;;;;;;;2.50;2.30;;;;;;;15.79;93.72;100507.13;5054241;28;20541;-73
2022/06/08 03:40:13;;;;;;;3.50;2.47;;;;;;;15.86;94.30;100508.16;5054156;28;20446;-74
2022/06/08 03:42:40;;;;;;;2.80;2.27;;;;;;;15.95;94.11;100510.81;5054419;28;20443;-73
2022/06/08 03:45:09;;;;;;;3.03;1.87;;;;;;;16.08;93.43;100508.88;5055704;28;20484;-74
2022/06/08 03:47:39;;;;;;;2.97;2.30;;;;;;;16.20;93.10;100511.59;5053964;28;20573;-74
2022/06/08 03:50:09;;;;;;;3.73;2.60;;;;;;;16.28;94.06;100513.44;5054004;28;20975;-74
2022/06/08 03:52:41;;;;;;;3.30;1.97;;;;;;;16.34;93.44;100517.56;5054275;28;20430;-74
2022/06/08 03:55:09;;;;;;;2.03;1.63;;;;;;;16.39;93.85;100511.06;5054244;28;20449;-74
2022/06/08 03:57:36;;;;;;;2.47;2.13;;;;;;;16.45;94.49;100506.16;5053914;28;20478;-74
2022/06/08 04:00:05;;;;;;;4.30;2.20;;;;;;;16.50;94.51;100511.41;5054170;28;20521;-74
2022/06/08 04:02:33;;;;;;;2.43;2.23;;;;;;;16.55;94.60;100516.63;5054060;28;20521;-76
2022/06/08 04:05:00;;;;;;;2.17;1.97;;;;;;;16.60;94.40;100524.59;5054053;28;20456;-76
2022/06/08 04:07:26;;;;;;;2.10;1.90;;;;;;;16.62;94.29;100522.34;5053136;28;20580;-76
2022/06/08 04:09:53;;;;;;;2.97;2.27;;;;;;;16.66;94.23;100523.25;5054028;28;20435;-77
2022/06/08 04:12:22;;;;;;;2.43;2.00;;;;;;;16.67;94.45;100518.56;5053817;28;20537;-76
2022/06/08 04:14:49;;;;;;;3.03;2.33;;;;;;;16.68;94.98;100526.41;5053830;28;20442;-75
2022/06/08 04:17:16;;;;;;;2.10;1.53;;;;;;;16.69;94.75;100522.56;5053745;28;20439;-75
2022/06/08 04:19:44;;;;;;;2.80;2.23;;;;;;;16.73;94.57;100518.00;5053792;28;20817;-74
2022/06/08 04:22:11;;;;;;;3.60;2.67;;;;;;;16.76;95.34;100520.06;5053684;28;20442;-75
2022/06/08 04:24:37;;;;;;;5.13;2.13;;;;;;;16.78;95.75;100517.78;5053377;28;20448;-75
2022/06/08 04:27:05;;;;;;;2.47;2.07;;;;;;;16.80;95.91;100515.50;5053478;28;20525;-75
2022/06/08 04:29:31;;;;;;;3.30;2.50;;;;;;;16.90;96.65;100506.81;5053584;28;20533;-76
2022/06/08 04:31:58;;;;;;;3.30;2.57;;;;;;;16.98;96.07;100510.56;5053225;28;20936;-76
2022/06/08 04:34:24;;;;;;;3.10;1.70;;;;;;;17.08;95.60;100506.53;5053517;28;20446;-76
2022/06/08 04:36:53;;;;;;;3.27;2.23;;;;;;;17.20;95.33;100509.25;5053391;28;20456;-76
2022/06/08 04:39:20;;;;;;;2.70;2.10;;;;;;;17.34;94.74;100503.38;5053324;28;20541;-76
2022/06/08 04:41:46;;;;;;;3.73;2.13;;;;;;;17.45;94.51;100512.69;5053347;28;20457;-76
2022/06/08 04:44:13;;;;;;;5.03;2.50;;;;;;;17.55;93.67;100506.69;5053148;28;20952;-76
2022/06/08 04:46:40;;;;;;;3.47;2.80;;;;;;;17.61;92.18;100509.97;5053069;28;20541;-76
2022/06/08 04:49:08;;;;;;;2.93;2.13;;;;;;;17.66;90.43;100515.19;5053143;28;20544;-76
2022/06/08 04:51:35;;;;;;;2.93;1.93;;;;;;;17.74;90.04;100517.00;5052965;28;20940;-74
2022/06/08 04:54:03;;;;;;;2.23;2.03;;;;;;;17.83;89.95;100514.91;5053154;28;20525;-75
2022/06/08 04:56:30;;;;;;;2.90;1.73;;;;;;;17.93;89.36;100512.78;5053227;28;20441;-76
2022/06/08 04:58:57;;;;;;;3.50;1.80;;;;;;;17.99;88.50;100517.69;5052724;28;21066;-75
2022/06/08 05:01:24;;;;;;;4.30;1.90;;;;;;;18.03;87.79;100517.78;5053217;28;20438;-75
2022/06/08 05:03:51;;;;;;;2.67;1.93;;;;;;;17.99;87.83;100517.69;5053111;28;20517;-75
2022/06/08 05:06:17;;;;;;;2.80;1.93;;;;;;;18.00;88.64;100521.22;5053064;28;20453;-75
2022/06/08 05:08:44;;;;;;;3.00;2.37;;;;;;;17.97;90.47;100522.69;5052860;28;20488;-75
2022/06/08 05:11:14;;;;;;;4.50;2.00;;;;;;;17.92;91.75;100522.16;5053846;28;20469;-76
2022/06/08 05:13:41;;;;;;;2.93;2.00;;;;;;;17.89;92.94;100519.00;5053125;28;20508;-76
2022/06/08 05:16:08;;;;;;;2.57;1.73;;;;;;;17.95;93.42;100516.00;5052978;28;20641;-75
2022/06/08 05:18:35;;;;;;;3.40;1.83;;;;;;;18.00;92.64;100512.97;5052867;28;20474;-75
2022/06/08 05:21:03;;;;;;;3.57;2.97;;;;;;;18.08;90.37;100515.56;5057197;28;20525;-73
2022/06/08 05:23:32;;;;;;;5.87;2.20;;;;;;;18.16;86.72;100513.78;5057068;28;20442;-74
2022/06/08 05:26:00;;;;;;;3.30;2.40;;;;;;;18.17;83.97;100518.13;5056920;28;20438;-75
2022/06/08 05:28:28;;;;;;;2.70;1.97;;;;;;;18.29;82.74;100509.00;5056950;28;20532;-74
2022/06/08 05:30:56;;;;;;;2.83;1.83;;;;;;;18.36;82.93;100509.16;5056823;28;20966;-77
2022/06/08 05:33:23;;;;;;;2.87;1.60;;;;;;;18.45;83.80;100503.50;5058435;28;20482;-76
2022/06/08 05:35:50;;;;;;;2.70;1.70;;;;;;;18.53;82.92;100494.28;5057589;28;20442;-76
2022/06/08 05:38:16;;;;;;;1.67;1.57;;;;;;;18.59;81.88;100501.06;5058823;28;20548;-78
2022/06/08 05:40:43;;;;;;;2.30;1.83;;;;;;;18.69;80.35;100500.56;5059895;28;20648;-77
2022/06/08 05:43:12;;;;;;;13.53;2.63;;;;;;;18.78;80.03;100503.91;5061017;28;20448;-79
2022/06/08 05:45:41;;;;;;;3.43;2.10;;;;;;;18.92;78.76;100502.63;5057897;28;20450;-77
2022/06/08 05:48:09;;;;;;;1.50;1.33;;;;;;;19.07;79.45;100504.50;5057638;28;20596;-77
2022/06/08 05:50:37;;;;;;;3.07;2.03;;;;;;;19.15;78.02;100498.81;5057835;28;20886;-78
2022/06/08 05:53:04;;;;;;;2.43;1.93;;;;;;;19.23;73.35;100512.69;5058379;28;20457;-78
2022/06/08 05:55:31;;;;;;;2.73;2.23;;;;;;;19.26;73.32;100506.50;5059102;28;20446;-78
2022/06/08 05:57:58;;;;;;;3.97;2.70;;;;;;;19.23;74.21;100508.00;5057656;28;21062;-78
2022/06/08 06:00:27;;;;;;;3.07;1.70;;;;;;;19.26;75.11;100512.78;5059077;28;21003;-78
2022/06/08 06:02:55;;;;;;;1.47;1.37;;;;;;;19.34;73.95;100510.94;5059134;28;20601;-78
2022/06/08 06:05:26;;;;;;;2.00;1.77;;;;;;;19.39;69.98;100516.97;5059913;28;20591;-78
2022/06/08 06:07:53;;;;;;;2.50;1.70;;;;;;;19.44;71.04;100515.09;5059545;28;20577;-78
2022/06/08 06:10:21;;;;;;;1.70;1.07;;;;;;;19.51;71.84;100515.19;5059924;28;20541;-79
2022/06/08 06:12:48;;;;;;;3.17;1.60;;;;;;;19.59;71.18;100514.19;5059856;28;20530;-78
2022/06/08 06:15:16;;;;;;;2.50;1.80;;;;;;;19.70;71.71;100520.72;5059350;28;20434;-78
2022/06/08 06:17:42;;;;;;;4.20;1.60;;;;;;;19.78;68.59;100511.41;5059801;28;20494;-79
2022/06/08 06:20:12;;;;;;;2.90;1.60;;;;;;;19.93;69.85;100512.50;5059271;28;20536;-78
2022/06/08 06:22:39;;;;;;;5.03;1.57;;;;;;;20.06;67.94;100515.84;5059856;28;20548;-78
2022/06/08 06:25:07;;;;;;;2.90;1.90;;;;;;;20.22;69.05;100513.75;5060166;28;20465;-78
2022/06/08 06:27:34;;;;;;;2.60;1.67;;;;;;;20.36;69.96;100513.19;5059603;28;20545;-78
2022/06/08 06:30:00;;;;;;;2.60;2.03;;;;;;;20.54;70.80;100513.47;5058587;28;21074;-78
2022/06/08 06:32:29;;;;;;;10.80;1.67;;;;;;;20.74;66.95;100506.72;5058709;28;20549;-78
2022/06/08 06:34:58;;;;;;;3.00;1.93;;;;;;;20.80;64.43;100507.97;5058582;28;20529;-78
2022/06/08 06:37:28;;;;;;;2.90;1.50;;;;;;;20.92;63.82;100507.75;5058770;28;20462;-78
2022/06/08 06:39:54;;;;;;;2.10;1.67;;;;;;;20.98;62.35;100518.44;5057678;28;20442;-79
2022/06/08 06:42:24;;;;;;;3.27;1.87;;;;;;;21.03;62.44;100515.34;5059569;28;21014;-78
2022/06/08 06:44:51;;;;;;;1.87;1.50;;;;;;;20.87;64.16;100508.06;5059973;28;20445;-78
2022/06/08 06:47:18;;;;;;;2.00;1.80;;;;;;;21.04;62.88;100516.97;5058568;28;20449;-78
2022/06/08 06:49:45;;;;;;;2.23;1.60;;;;;;;21.10;64.68;100518.22;5058980;28;20855;-78
2022/06/08 06:52:13;;;;;;;2.03;1.73;;;;;;;21.23;64.40;100516.81;5059543;28;20507;-78
2022/06/08 06:54:42;;;;;;;2.90;1.73;;;;;;;21.34;65.01;100522.50;5058477;28;21025;-78
2022/06/08 06:57:09;;;;;;;2.00;1.40;;;;;;;21.44;64.07;100521.81;5057102;28;20526;-74
2022/06/08 06:59:35;;;;;;;5.63;2.03;;;;;;;21.48;62.98;100516.34;5054975;28;20549;-78
2022/06/08 07:02:02;;;;;;;1.53;1.17;;;;;;;21.44;61.35;100515.50;5055449;28;20533;-79
2022/06/08 07:04:29;;;;;;;4.40;2.00;;;;;;;21.39;62.44;100509.16;5056007;28;20442;-78
2022/06/08 07:06:55;;;;;;;2.27;1.70;;;;;;;21.39;61.65;100508.38;5058609;28;20524;-78
2022/06/08 07:09:22;;;;;;;2.07;1.80;;;;;;;21.33;62.05;100507.88;5057565;28;20490;-78
2022/06/08 07:11:50;;;;;;;1.97;1.67;;;;;;;21.28;63.61;100512.91;5056087;28;20493;-77
2022/06/08 07:14:18;;;;;;;2.90;1.87;;;;;;;21.30;62.44;100519.66;5056686;28;20446;-78
2022/06/08 07:16:47;;;;;;;2.47;1.70;;;;;;;21.33;64.04;100510.66;5056188;28;20528;-78
2022/06/08 07:19:15;;;;;;;2.20;1.77;;;;;;;21.34;62.63;100515.00;5056864;28;21066;-78
2022/06/08 07:21:42;;;;;;;2.50;1.93;;;;;;;21.40;63.10;100516.25;5057937;28;20537;-78
2022/06/08 07:24:15;;;;;;;2.00;1.77;;;;;;;21.44;63.78;100516.28;5057019;28;20896;-77
2022/06/08 07:26:42;;;;;;;1.43;1.33;;;;;;;21.46;63.08;100513.94;5056319;28;20543;-76
2022/06/08 07:29:10;;;;;;;3.13;1.73;;;;;;;21.51;64.92;100510.84;5054647;28;20919;-76
2022/06/08 07:31:37;;;;;;;2.07;1.87;;;;;;;21.70;62.49;100515.41;5055025;28;20449;-77
2022/06/08 07:34:03;;;;;;;2.50;1.60;;;;;;;21.90;61.23;100511.25;5054743;28;20524;-76
2022/06/08 07:36:30;;;;;;;3.37;1.73;;;;;;;22.06;61.63;100516.53;5056409;28;20528;-77
2022/06/08 07:38:57;;;;;;;1.97;1.47;;;;;;;22.11;61.43;100510.66;5058394;28;20466;-77
2022/06/08 07:41:25;;;;;;;1.57;1.33;;;;;;;22.19;60.14;100506.03;5059093;28;20458;-76
2022/06/08 07:43:51;;;;;;;1.10;0.93;;;;;;;22.31;60.28;100514.00;5056778;28;20430;-75
2022/06/08 07:46:20;;;;;;;1.40;1.10;;;;;;;22.25;59.96;100515.53;5056708;28;21034;-77
2022/06/08 07:51:30;;;;;;;1.83;1.30;;;;;;;22.49;59.72;100511.38;5056904;28;20414;-75
2022/06/08 07:53:57;;;;;;;2.07;1.37;;;;;;;22.55;60.22;100506.28;5057587;28;20454;-78
2022/06/08 07:56:24;;;;;;;1.30;1.20;;;;;;;22.49;58.33;100516.09;5055153;28;20877;-74
2022/06/08 07:58:50;;;;;;;5.13;1.33;;;;;;;22.51;58.39;100506.25;5055568;28;20580;-78
2022/06/08 08:01:17;;;;;;;1.40;1.23;;;;;;;22.53;60.28;100503.09;5054426;28;20453;-74
2022/06/08 08:03:45;;;;;;;1.47;1.30;;;;;;;22.41;59.75;100499.50;5054012;28;20444;-72
2022/06/08 08:06:11;;;;;;;3.10;1.27;;;;;;;22.59;59.58;100507.91;5054009;28;20439;-73
2022/06/08 08:08:38;;;;;;;3.90;1.70;;;;;;;22.73;58.53;100509.94;5053814;28;20489;-73
2022/06/08 08:11:05;;;;;;;1.17;0.93;;;;;;;22.74;59.41;100503.25;5053489;28;21050;-73
2022/06/08 08:13:32;;;;;;;1.30;1.20;;;;;;;22.74;59.24;100502.44;5053980;28;20512;-74
2022/06/08 08:15:59;;;;;;;3.40;1.80;;;;;;;22.74;58.96;100506.00;5053837;28;20521;-74
2022/06/08 08:18:26;;;;;;;2.30;1.80;;;;;;;22.71;59.19;100512.31;5053686;28;20466;-74
2022/06/08 08:20:54;;;;;;;1.70;1.10;;;;;;;22.63;59.62;100502.41;5053723;28;20448;-74
2022/06/08 08:23:20;;;;;;;2.00;1.60;;;;;;;22.47;59.51;100499.13;5053448;28;21011;-74
2022/06/08 08:25:47;;;;;;;3.27;1.57;;;;;;;22.41;60.27;100502.25;5053646;28;20449;-73
2022/06/08 08:28:13;;;;;;;2.50;1.73;;;;;;;22.21;63.74;100492.63;5053219;28;21078;-73
2022/06/08 08:30:40;;;;;;;4.53;1.80;;;;;;;22.12;63.99;100487.44;5053534;28;20525;-74
2022/06/08 08:33:07;;;;;;;1.50;1.33;;;;;;;22.22;61.81;100488.69;5053186;28;21006;-74
2022/06/08 08:35:35;;;;;;;1.57;1.37;;;;;;;22.15;64.37;100483.91;5053231;28;20958;-74
2022/06/08 08:38:03;;;;;;;2.40;1.63;;;;;;;22.19;63.09;100486.72;5053161;28;20893;-74
2022/06/08 08:40:39;;;;;;;1.70;1.30;;;;;;;22.32;62.29;100482.47;5053102;28;20437;-74
2022/06/08 08:43:09;;;;;;;1.70;1.50;;;;;;;22.45;61.64;100485.72;5053416;28;20431;-74
2022/06/08 08:45:43;;;;;;;2.20;1.80;;;;;;;22.55;61.74;100482.22;5053093;28;20451;-74
2022/06/08 08:48:27;;;;;;;1.73;1.43;;;;;;;22.73;61.41;100476.81;5052968;28;20545;-74
2022/06/08 08:51:01;;;;;;;1.60;1.50;;;;;;;22.89;61.77;100474.56;5053312;28;20505;-74
2022/06/08 08:53:43;;;;;;;1.57;1.47;;;;;;;23.16;60.47;100477.03;5052858;28;20426;-74
2022/06/08 08:56:15;;;;;;;2.23;1.33;;;;;;;23.25;59.77;100471.16;5053246;28;20439;-74
2022/06/08 08:58:46;;;;;;;2.57;1.33;;;;;;;23.44;58.78;100467.25;5052723;28;20992;-74
2022/06/08 09:01:18;;;;;;;1.20;0.93;;;;;;;23.56;59.58;100473.19;5053171;28;20480;-74
2022/06/08 09:03:47;;;;;;;1.80;1.20;;;;;;;23.63;57.89;100469.63;5053150;28;20509;-74
2022/06/08 09:06:16;;;;;;;5.03;1.10;;;;;;;23.62;56.27;100463.31;5053011;28;20482;-74
2022/06/08 09:08:47;;;;;;;1.13;0.73;;;;;;;23.65;56.34;100464.56;5052910;28;20841;-74
2022/06/08 09:11:18;;;;;;;1.77;1.00;;;;;;;23.62;56.65;100468.06;5053104;28;20500;-73
2022/06/08 09:13:49;;;;;;;1.57;1.10;;;;;;;23.67;55.97;100462.97;5053145;28;20430;-74
2022/06/08 09:16:35;;;;;;;1.60;1.40;;;;;;;23.73;56.90;100457.03;5053021;28;20512;-74
2022/06/08 09:19:23;;;;;;;0.90;0.83;;;;;;;23.83;57.24;100456.28;5052933;28;20466;-73
2022/06/08 09:21:52;;;;;;;1.33;0.90;;;;;;;23.92;56.86;100451.91;5053271;28;20450;-73
2022/06/08 09:24:28;;;;;;;1.63;1.00;;;;;;;24.13;57.23;100442.03;5052920;28;20840;-73
2022/06/08 09:26:57;;;;;;;1.30;0.83;;;;;;;24.29;59.37;100442.41;5052959;28;20510;-74
2022/06/08 09:29:26;;;;;;;1.57;0.90;;;;;;;24.24;56.63;100437.25;5052812;28;20490;-73
2022/06/08 09:31:53;;;;;;;1.50;1.10;;;;;;;24.11;55.01;100438.88;5052602;28;20448;-73
2022/06/08 09:34:23;;;;;;;0.80;0.67;;;;;;;24.17;53.87;100443.63;5052912;28;20437;-73
2022/06/08 09:37:11;;;;;;;1.90;0.90;;;;;;;24.07;54.43;100444.41;5053150;28;20444;-73
2022/06/08 09:39:39;;;;;;;1.87;1.30;;;;;;;23.96;54.93;100438.09;5052525;28;20426;-74
2022/06/08 09:42:31;;;;;;;1.50;1.00;;;;;;;24.08;55.21;100434.09;5052804;28;20441;-74
2022/06/08 09:45:05;;;;;;;1.13;1.03;;;;;;;24.06;54.60;100428.19;5052507;28;20954;-73
2022/06/08 09:53:28;;;;;;;1.40;1.30;;;;;;;23.69;61.19;100415.56;5052499;28;20418;-73
2022/06/08 09:56:09;;;;;;;1.13;1.00;;;;;;;23.90;56.51;100417.53;5052329;28;21022;-73
2022/06/08 09:58:57;;;;;;;1.27;1.03;;;;;;;24.10;56.47;100407.63;5052337;28;20941;-73
2022/06/08 10:01:31;;;;;;;4.20;1.23;;;;;;;24.21;55.61;100404.84;5052666;28;20426;-73
2022/06/08 10:04:13;;;;;;;1.23;1.10;;;;;;;24.25;54.32;100404.84;5052593;28;20414;-73
2022/06/08 10:06:45;;;;;;;1.60;1.30;;;;;;;24.31;56.64;100406.03;5055800;28;20512;-73
2022/06/08 10:09:25;;;;;;;1.53;1.03;;;;;;;24.23;56.23;100394.16;5056157;28;20539;-73
2022/06/08 10:12:02;;;;;;;1.43;1.20;;;;;;;24.21;57.12;100392.97;5055894;28;20437;-73
2022/06/08 10:14:39;;;;;;;1.30;0.97;;;;;;;24.24;57.35;100390.19;5056216;28;20430;-74
2022/06/08 10:17:13;;;;;;;1.17;0.80;;;;;;;24.04;55.41;100386.28;5056022;28;20525;-73
2022/06/08 10:19:52;;;;;;;1.43;1.10;;;;;;;23.90;56.00;100389.84;5056106;28;20429;-73
2022/06/08 10:22:20;;;;;;;1.80;1.10;;;;;;;23.80;56.31;100385.91;5056054;28;20422;-72
2022/06/08 10:24:54;;;;;;;2.97;1.73;;;;;;;23.66;58.20;100388.69;5055615;28;20444;-73
2022/06/08 10:27:27;;;;;;;1.60;1.13;;;;;;;23.63;56.18;100392.19;5055886;28;20451;-75
2022/06/08 10:30:07;;;;;;;1.47;1.20;;;;;;;23.60;57.54;100390.25;5055776;28;20462;-73
2022/06/08 10:32:40;;;;;;;1.17;1.03;;;;;;;23.72;56.56;100389.84;5055744;28;20480;-72
2022/06/08 10:35:19;;;;;;;1.00;0.83;;;;;;;23.67;55.84;100385.50;5055382;28;20426;-73
2022/06/08 10:37:47;;;;;;;1.23;1.00;;;;;;;23.70;56.74;100383.16;5055017;28;20835;-71
2022/06/08 10:40:19;;;;;;;1.10;0.80;;;;;;;23.73;56.20;100380.41;5055293;28;20447;-73
2022/06/08 10:42:50;;;;;;;1.80;0.97;;;;;;;23.65;56.93;100389.88;5055603;28;20452;-74
2022/06/08 10:45:45;;;;;;;1.03;0.93;;;;;;;23.69;57.81;100378.81;5055536;28;20513;-74
2022/06/08 10:48:36;;;;;;;1.00;0.70;;;;;;;23.71;57.43;100387.50;5055408;28;20471;-74
2022/06/08 10:51:24;;;;;;;2.60;1.03;;;;;;;23.77;56.63;100378.41;5051716;28;21003;-73
2022/06/08 10:56:55;;;;;;;1.70;1.33;;;;;;;24.39;55.56;100369.63;5055181;28;20447;-73
2022/06/08 10:59:25;;;;;;;1.77;1.10;;;;;;;24.72;55.86;100355.66;5054937;28;20474;-73
2022/06/08 11:02:02;;;;;;;1.13;0.63;;;;;;;25.09;54.37;100366.16;5055177;28;20433;-73
2022/06/08 11:04:49;;;;;;;0.90;0.70;;;;;;;25.22;51.58;100367.25;5055231;28;20520;-73
2022/06/08 11:07:19;;;;;;;0.90;0.70;;;;;;;25.21;50.33;100365.69;5055098;28;20430;-73
2022/06/08 11:09:54;;;;;;;1.77;0.83;;;;;;;25.12;50.92;100360.59;5054917;28;20486;-73
2022/06/08 11:12:30;;;;;;;0.97;0.70;;;;;;;25.17;52.16;100362.94;5055049;28;20453;-73
2022/06/08 11:15:01;;;;;;;0.80;0.80;;;;;;;25.24;50.80;100355.78;5055025;28;20489;-72
2022/06/08 11:17:32;;;;;;;1.20;0.67;;;;;;;25.27;49.72;100355.72;5054795;28;20454;-73
2022/06/08 11:20:05;;;;;;;0.90;0.60;;;;;;;25.28;51.16;100356.53;5054788;28;20810;-72
2022/06/08 11:22:37;;;;;;;0.90;0.70;;;;;;;25.38;50.13;100350.91;5054927;28;20427;-73
2022/06/08 11:25:07;;;;;;;1.63;0.80;;;;;;;25.37;49.88;100346.56;5054879;28;20553;-73
2022/06/08 11:27:35;;;;;;;1.90;1.23;;;;;;;25.36;51.21;100355.28;5054721;28;20462;-73
2022/06/08 11:30:27;;;;;;;1.27;0.90;;;;;;;25.28;49.19;100354.56;5054320;28;20488;-73
2022/06/08 11:33:16;;;;;;;1.10;0.73;;;;;;;25.07;51.84;100349.91;5054356;28;20452;-74
2022/06/08 11:35:58;;;;;;;1.10;0.90;;;;;;;25.01;50.67;100347.97;5054715;28;20430;-73
2022/06/08 11:38:47;;;;;;;1.00;0.90;;;;;;;25.01;51.76;100339.66;5054671;28;20470;-73
2022/06/08 11:41:26;;;;;;;1.90;0.90;;;;;;;25.02;50.41;100336.50;5054202;28;20988;-73
2022/06/08 11:43:53;;;;;;;1.30;0.70;;;;;;;25.02;49.52;100332.94;5054583;28;20509;-73
2022/06/08 11:46:24;;;;;;;1.30;0.90;;;;;;;25.08;50.38;100323.00;5054542;28;20525;-73
2022/06/08 11:48:54;;;;;;;1.23;0.63;;;;;;;25.19;50.27;100326.50;5054008;28;20462;-73
2022/06/08 11:51:36;;;;;;;0.90;0.67;;;;;;;25.34;50.16;100327.97;5054143;28;20478;-73
2022/06/08 11:54:18;;;;;;;1.20;0.90;;;;;;;25.42;48.14;100329.50;5054291;28;20510;-73